sensor_id;sensor_type;location;lat;lon;timestamp;temperature;humidity
9762;DHT22;4920;49.594;11.022;2023-04-01T00:01:19;8.10;99.90
9762;DHT22;4920;49.594;11.022;2023-04-01T00:03:48;8.00;99.90
9762;DHT22;4920;49.594;11.022;2023-04-01T00:06:18;8.00;99.90
9762;DHT22;4920;49.594;11.022;2023-04-01T00:08:47;8.00;99.90
9762;DHT22;4920;49.594;11.022;2023-04-01T00:11:15;8.00;99.90
9762;DHT22;4920;49.594;11.022;2023-04-01T00:13:47;8.00;99.90
9762;DHT22;4920;49.594;11.022;2023-04-01T00:16:17;8.10;99.90
9762;DHT22;4920;49.594;11.022;2023-04-01T00:18:49;8.20;99.90
9762;DHT22;4920;49.594;11.022;2023-04-01T00:21:19;8.30;99.90
9762;DHT22;4920;49.594;11.022;2023-04-01T00:23:49;8.40;99.90
9762;DHT22;4920;49.594;11.022;2023-04-01T00:26:19;8.50;99.90
9762;DHT22;4920;49.594;11.022;2023-04-01T00:28:49;8.60;99.90
9762;DHT22;4920;49.594;11.022;2023-04-01T00:31:19;8.70;99.90
9762;DHT22;4920;49.594;11.022;2023-04-01T00:33:48;8.80;99.90
9762;DHT22;4920;49.594;11.022;2023-04-01T00:36:19;8.90;99.90
9762;DHT22;4920;49.594;11.022;2023-04-01T00:38:49;8.90;99.90
9762;DHT22;4920;49.594;11.022;2023-04-01T00:41:23;8.90;99.90
9762;DHT22;4920;49.594;11.022;2023-04-01T00:46:37;9.10;99.90
9762;DHT22;4920;49.594;11.022;2023-04-01T00:49:06;9.20;99.90
9762;DHT22;4920;49.594;11.022;2023-04-01T00:51:36;9.30;99.90
9762;DHT22;4920;49.594;11.022;2023-04-01T00:54:06;9.30;99.90
9762;DHT22;4920;49.594;11.022;2023-04-01T00:56:41;9.40;99.90
9762;DHT22;4920;49.594;11.022;2023-04-01T00:59:14;9.50;99.90
9762;DHT22;4920;49.594;11.022;2023-04-01T01:01:46;9.50;99.90
9762;DHT22;4920;49.594;11.022;2023-04-01T01:04:25;9.60;99.90
9762;DHT22;4920;49.594;11.022;2023-04-01T01:07:08;9.60;99.90
9762;DHT22;4920;49.594;11.022;2023-04-01T01:09:46;9.60;99.90
9762;DHT22;4920;49.594;11.022;2023-04-01T01:12:22;9.70;99.90
9762;DHT22;4920;49.594;11.022;2023-04-01T01:14:57;9.70;99.90
9762;DHT22;4920;49.594;11.022;2023-04-01T01:17:34;9.70;99.90
9762;DHT22;4920;49.594;11.022;2023-04-01T01:26:38;9.80;99.90
9762;DHT22;4920;49.594;11.022;2023-04-01T01:29:22;9.80;99.90
9762;DHT22;4920;49.594;11.022;2023-04-01T01:31:58;9.80;99.90
9762;DHT22;4920;49.594;11.022;2023-04-01T01:34:33;9.80;99.90
9762;DHT22;4920;49.594;11.022;2023-04-01T01:37:09;9.80;99.90
9762;DHT22;4920;49.594;11.022;2023-04-01T01:39:40;9.80;99.90
9762;DHT22;4920;49.594;11.022;2023-04-01T01:42:13;9.80;99.90
9762;DHT22;4920;49.594;11.022;2023-04-01T01:44:46;9.80;99.90
9762;DHT22;4920;49.594;11.022;2023-04-01T01:47:17;9.80;99.90
9762;DHT22;4920;49.594;11.022;2023-04-01T01:49:47;9.80;99.90
9762;DHT22;4920;49.594;11.022;2023-04-01T01:52:18;9.90;99.90
9762;DHT22;4920;49.594;11.022;2023-04-01T01:54:48;9.80;99.90
9762;DHT22;4920;49.594;11.022;2023-04-01T01:57:19;9.80;99.90
9762;DHT22;4920;49.594;11.022;2023-04-01T01:59:52;9.80;99.90
9762;DHT22;4920;49.594;11.022;2023-04-01T02:02:26;9.80;99.90
9762;DHT22;4920;49.594;11.022;2023-04-01T02:04:58;9.80;99.90
9762;DHT22;4920;49.594;11.022;2023-04-01T02:07:33;9.60;99.90
9762;DHT22;4920;49.594;11.022;2023-04-01T02:10:04;9.60;99.90
9762;DHT22;4920;49.594;11.022;2023-04-01T02:12:34;9.50;99.90
9762;DHT22;4920;49.594;11.022;2023-04-01T02:15:07;9.50;99.90
9762;DHT22;4920;49.594;11.022;2023-04-01T02:17:40;9.60;99.90
9762;DHT22;4920;49.594;11.022;2023-04-01T02:20:14;9.60;99.90
9762;DHT22;4920;49.594;11.022;2023-04-01T02:22:48;9.70;99.90
9762;DHT22;4920;49.594;11.022;2023-04-01T02:25:20;9.60;99.90
9762;DHT22;4920;49.594;11.022;2023-04-01T02:27:51;9.70;99.90
9762;DHT22;4920;49.594;11.022;2023-04-01T02:30:21;9.70;99.90
9762;DHT22;4920;49.594;11.022;2023-04-01T02:32:50;9.70;99.90
9762;DHT22;4920;49.594;11.022;2023-04-01T02:35:19;9.70;99.90
9762;DHT22;4920;49.594;11.022;2023-04-01T02:37:50;9.70;99.90
9762;DHT22;4920;49.594;11.022;2023-04-01T02:40:20;9.70;99.90
9762;DHT22;4920;49.594;11.022;2023-04-01T02:42:49;9.80;99.90
9762;DHT22;4920;49.594;11.022;2023-04-01T02:45:18;9.80;99.90
9762;DHT22;4920;49.594;11.022;2023-04-01T02:47:47;9.80;99.90
9762;DHT22;4920;49.594;11.022;2023-04-01T02:50:16;9.80;99.90
9762;DHT22;4920;49.594;11.022;2023-04-01T02:52:45;9.80;99.90
9762;DHT22;4920;49.594;11.022;2023-04-01T02:55:15;9.80;99.90
9762;DHT22;4920;49.594;11.022;2023-04-01T02:57:44;9.80;99.90
9762;DHT22;4920;49.594;11.022;2023-04-01T03:00:14;9.80;99.90
9762;DHT22;4920;49.594;11.022;2023-04-01T03:02:42;9.80;99.90
9762;DHT22;4920;49.594;11.022;2023-04-01T03:05:12;9.80;99.90
9762;DHT22;4920;49.594;11.022;2023-04-01T03:07:40;9.80;99.90
9762;DHT22;4920;49.594;11.022;2023-04-01T03:10:09;9.80;99.90
9762;DHT22;4920;49.594;11.022;2023-04-01T03:12:40;9.80;99.90
9762;DHT22;4920;49.594;11.022;2023-04-01T03:15:10;9.80;99.90
9762;DHT22;4920;49.594;11.022;2023-04-01T03:17:41;9.80;99.90
9762;DHT22;4920;49.594;11.022;2023-04-01T03:20:11;9.80;99.90
9762;DHT22;4920;49.594;11.022;2023-04-01T03:22:40;9.80;99.90
9762;DHT22;4920;49.594;11.022;2023-04-01T03:25:10;9.70;99.90
9762;DHT22;4920;49.594;11.022;2023-04-01T03:27:40;9.80;99.90
9762;DHT22;4920;49.594;11.022;2023-04-01T03:30:09;9.80;99.90
9762;DHT22;4920;49.594;11.022;2023-04-01T03:32:47;9.80;99.90
9762;DHT22;4920;49.594;11.022;2023-04-01T03:35:16;9.80;99.90
9762;DHT22;4920;49.594;11.022;2023-04-01T03:37:45;9.70;99.90
9762;DHT22;4920;49.594;11.022;2023-04-01T03:40:14;9.70;99.90
9762;DHT22;4920;49.594;11.022;2023-04-01T03:42:46;9.70;99.90
9762;DHT22;4920;49.594;11.022;2023-04-01T03:45:14;9.70;99.90
9762;DHT22;4920;49.594;11.022;2023-04-01T03:47:43;9.70;99.90
9762;DHT22;4920;49.594;11.022;2023-04-01T03:50:12;9.70;99.90
9762;DHT22;4920;49.594;11.022;2023-04-01T03:52:41;9.70;99.90
9762;DHT22;4920;49.594;11.022;2023-04-01T03:55:09;9.70;99.90
9762;DHT22;4920;49.594;11.022;2023-04-01T03:57:39;9.70;99.90
9762;DHT22;4920;49.594;11.022;2023-04-01T04:00:18;9.70;99.90
9762;DHT22;4920;49.594;11.022;2023-04-01T04:02:52;9.60;99.90
9762;DHT22;4920;49.594;11.022;2023-04-01T04:05:27;9.60;99.90
9762;DHT22;4920;49.594;11.022;2023-04-01T04:07:56;9.60;99.90
9762;DHT22;4920;49.594;11.022;2023-04-01T04:10:25;9.60;99.90
9762;DHT22;4920;49.594;11.022;2023-04-01T04:12:56;9.70;99.90
9762;DHT22;4920;49.594;11.022;2023-04-01T04:15:29;9.60;99.90
9762;DHT22;4920;49.594;11.022;2023-04-01T04:17:58;9.70;99.90
9762;DHT22;4920;49.594;11.022;2023-04-01T04:20:27;9.70;99.90
9762;DHT22;4920;49.594;11.022;2023-04-01T04:22:56;9.60;99.90
9762;DHT22;4920;49.594;11.022;2023-04-01T04:25:27;9.60;99.90
9762;DHT22;4920;49.594;11.022;2023-04-01T04:27:56;9.60;99.90
9762;DHT22;4920;49.594;11.022;2023-04-01T04:30:26;9.60;99.90
9762;DHT22;4920;49.594;11.022;2023-04-01T04:32:56;9.60;99.90
9762;DHT22;4920;49.594;11.022;2023-04-01T04:35:25;9.60;99.90
9762;DHT22;4920;49.594;11.022;2023-04-01T04:37:54;9.70;99.90
9762;DHT22;4920;49.594;11.022;2023-04-01T04:40:22;9.60;99.90
9762;DHT22;4920;49.594;11.022;2023-04-01T04:42:51;9.60;99.90
9762;DHT22;4920;49.594;11.022;2023-04-01T04:45:20;9.60;99.90
9762;DHT22;4920;49.594;11.022;2023-04-01T04:47:55;9.60;99.90
9762;DHT22;4920;49.594;11.022;2023-04-01T04:50:25;9.60;99.90
9762;DHT22;4920;49.594;11.022;2023-04-01T04:52:53;9.60;99.90
9762;DHT22;4920;49.594;11.022;2023-04-01T04:55:22;9.50;99.90
9762;DHT22;4920;49.594;11.022;2023-04-01T04:58:10;9.40;99.90
9762;DHT22;4920;49.594;11.022;2023-04-01T05:00:42;9.30;99.90
9762;DHT22;4920;49.594;11.022;2023-04-01T05:03:19;9.30;99.90
9762;DHT22;4920;49.594;11.022;2023-04-01T05:05:49;9.30;99.90
9762;DHT22;4920;49.594;11.022;2023-04-01T05:08:19;9.30;99.90
9762;DHT22;4920;49.594;11.022;2023-04-01T05:10:47;9.30;99.90
9762;DHT22;4920;49.594;11.022;2023-04-01T05:13:16;9.30;99.90
9762;DHT22;4920;49.594;11.022;2023-04-01T05:15:57;9.30;99.90
9762;DHT22;4920;49.594;11.022;2023-04-01T05:18:27;9.30;99.90
9762;DHT22;4920;49.594;11.022;2023-04-01T05:20:56;9.40;99.90
9762;DHT22;4920;49.594;11.022;2023-04-01T05:23:24;9.40;99.90
9762;DHT22;4920;49.594;11.022;2023-04-01T05:25:53;9.30;99.90
9762;DHT22;4920;49.594;11.022;2023-04-01T05:28:24;9.40;99.90
9762;DHT22;4920;49.594;11.022;2023-04-01T05:30:52;9.40;99.90
9762;DHT22;4920;49.594;11.022;2023-04-01T05:33:24;9.30;99.90
9762;DHT22;4920;49.594;11.022;2023-04-01T05:35:54;9.40;99.90
9762;DHT22;4920;49.594;11.022;2023-04-01T05:38:23;9.40;99.90
9762;DHT22;4920;49.594;11.022;2023-04-01T05:40:58;9.40;99.90
9762;DHT22;4920;49.594;11.022;2023-04-01T05:43:27;9.50;99.90
9762;DHT22;4920;49.594;11.022;2023-04-01T05:46:03;9.50;99.90
9762;DHT22;4920;49.594;11.022;2023-04-01T05:48:41;9.50;99.90
9762;DHT22;4920;49.594;11.022;2023-04-01T05:51:13;9.50;99.90
9762;DHT22;4920;49.594;11.022;2023-04-01T05:53:43;9.60;99.90
9762;DHT22;4920;49.594;11.022;2023-04-01T05:56:12;9.60;99.90
9762;DHT22;4920;49.594;11.022;2023-04-01T05:59:15;9.60;99.90
9762;DHT22;4920;49.594;11.022;2023-04-01T06:01:44;9.60;99.90
9762;DHT22;4920;49.594;11.022;2023-04-01T06:04:14;9.60;99.90
9762;DHT22;4920;49.594;11.022;2023-04-01T06:06:46;9.70;99.90
9762;DHT22;4920;49.594;11.022;2023-04-01T06:09:17;9.70;99.90
9762;DHT22;4920;49.594;11.022;2023-04-01T06:14:57;9.80;99.90
9762;DHT22;4920;49.594;11.022;2023-04-01T06:17:43;9.90;99.90
9762;DHT22;4920;49.594;11.022;2023-04-01T06:20:21;10.00;99.90
9762;DHT22;4920;49.594;11.022;2023-04-01T06:23:16;10.00;99.90
9762;DHT22;4920;49.594;11.022;2023-04-01T06:25:54;10.10;99.90
9762;DHT22;4920;49.594;11.022;2023-04-01T06:29:01;10.30;99.90
9762;DHT22;4920;49.594;11.022;2023-04-01T06:31:55;10.40;99.90
9762;DHT22;4920;49.594;11.022;2023-04-01T06:34:36;10.60;99.90
9762;DHT22;4920;49.594;11.022;2023-04-01T06:37:23;10.70;99.90
9762;DHT22;4920;49.594;11.022;2023-04-01T06:40:12;10.80;99.90
9762;DHT22;4920;49.594;11.022;2023-04-01T06:42:55;11.00;99.90
9762;DHT22;4920;49.594;11.022;2023-04-01T06:45:53;11.10;99.90
9762;DHT22;4920;49.594;11.022;2023-04-01T06:48:55;11.10;99.90
9762;DHT22;4920;49.594;11.022;2023-04-01T06:51:51;11.20;99.90
9762;DHT22;4920;49.594;11.022;2023-04-01T06:54:42;11.20;99.90
9762;DHT22;4920;49.594;11.022;2023-04-01T06:57:35;11.20;99.90
9762;DHT22;4920;49.594;11.022;2023-04-01T07:00:13;11.30;99.90
9762;DHT22;4920;49.594;11.022;2023-04-01T07:02:47;11.40;99.90
9762;DHT22;4920;49.594;11.022;2023-04-01T07:05:22;11.50;99.90
9762;DHT22;4920;49.594;11.022;2023-04-01T07:07:54;11.60;99.90
9762;DHT22;4920;49.594;11.022;2023-04-01T07:10:33;11.60;99.90
9762;DHT22;4920;49.594;11.022;2023-04-01T07:13:26;11.70;99.90
9762;DHT22;4920;49.594;11.022;2023-04-01T07:16:08;11.80;99.90
9762;DHT22;4920;49.594;11.022;2023-04-01T07:18:44;11.80;99.90
9762;DHT22;4920;49.594;11.022;2023-04-01T07:21:25;11.90;99.90
9762;DHT22;4920;49.594;11.022;2023-04-01T07:23:59;12.10;99.90
9762;DHT22;4920;49.594;11.022;2023-04-01T07:26:45;12.20;99.90
9762;DHT22;4920;49.594;11.022;2023-04-01T07:29:19;12.30;99.90
9762;DHT22;4920;49.594;11.022;2023-04-01T07:32:20;12.30;99.90
9762;DHT22;4920;49.594;11.022;2023-04-01T07:35:07;12.40;99.90
9762;DHT22;4920;49.594;11.022;2023-04-01T07:37:47;12.50;99.90
9762;DHT22;4920;49.594;11.022;2023-04-01T07:40:47;12.50;99.90
9762;DHT22;4920;49.594;11.022;2023-04-01T07:43:27;12.60;99.90
9762;DHT22;4920;49.594;11.022;2023-04-01T07:46:25;12.60;99.90
9762;DHT22;4920;49.594;11.022;2023-04-01T07:49:02;12.60;99.90
9762;DHT22;4920;49.594;11.022;2023-04-01T07:51:37;12.50;99.90
9762;DHT22;4920;49.594;11.022;2023-04-01T07:54:15;12.40;99.90
9762;DHT22;4920;49.594;11.022;2023-04-01T07:56:51;12.20;99.90
9762;DHT22;4920;49.594;11.022;2023-04-01T07:59:34;12.20;99.90
9762;DHT22;4920;49.594;11.022;2023-04-01T08:02:49;12.20;99.90
9762;DHT22;4920;49.594;11.022;2023-04-01T08:05:27;12.20;99.90
9762;DHT22;4920;49.594;11.022;2023-04-01T08:08:09;12.30;99.90
9762;DHT22;4920;49.594;11.022;2023-04-01T08:11:12;12.50;99.90
9762;DHT22;4920;49.594;11.022;2023-04-01T08:14:07;12.70;99.90
9762;DHT22;4920;49.594;11.022;2023-04-01T08:17:16;12.80;99.90
9762;DHT22;4920;49.594;11.022;2023-04-01T08:19:59;12.90;99.90
9762;DHT22;4920;49.594;11.022;2023-04-01T08:22:35;12.80;99.90
9762;DHT22;4920;49.594;11.022;2023-04-01T08:25:16;12.70;99.90
9762;DHT22;4920;49.594;11.022;2023-04-01T08:27:50;12.60;99.90
9762;DHT22;4920;49.594;11.022;2023-04-01T08:30:21;12.40;99.90
9762;DHT22;4920;49.594;11.022;2023-04-01T08:32:54;12.20;99.90
9762;DHT22;4920;49.594;11.022;2023-04-01T08:35:31;12.10;99.90
9762;DHT22;4920;49.594;11.022;2023-04-01T08:38:10;12.00;99.90
9762;DHT22;4920;49.594;11.022;2023-04-01T08:40:59;11.90;99.90
9762;DHT22;4920;49.594;11.022;2023-04-01T08:44:21;11.80;99.90
9762;DHT22;4920;49.594;11.022;2023-04-01T08:47:14;11.80;99.90
9762;DHT22;4920;49.594;11.022;2023-04-01T08:49:56;11.80;99.90
9762;DHT22;4920;49.594;11.022;2023-04-01T08:52:59;11.70;99.90
9762;DHT22;4920;49.594;11.022;2023-04-01T08:55:44;11.70;99.90
9762;DHT22;4920;49.594;11.022;2023-04-01T09:01:26;11.90;99.90
9762;DHT22;4920;49.594;11.022;2023-04-01T09:04:25;11.90;99.90
9762;DHT22;4920;49.594;11.022;2023-04-01T09:07:16;12.00;99.90
9762;DHT22;4920;49.594;11.022;2023-04-01T09:10:14;12.00;99.90
9762;DHT22;4920;49.594;11.022;2023-04-01T09:13:09;12.10;99.90
9762;DHT22;4920;49.594;11.022;2023-04-01T09:16:16;12.20;99.90
9762;DHT22;4920;49.594;11.022;2023-04-01T09:19:11;12.30;99.90
9762;DHT22;4920;49.594;11.022;2023-04-01T09:21:54;12.40;99.90
9762;DHT22;4920;49.594;11.022;2023-04-01T09:24:52;12.60;99.90
9762;DHT22;4920;49.594;11.022;2023-04-01T09:27:31;12.70;99.90
9762;DHT22;4920;49.594;11.022;2023-04-01T09:30:33;12.70;99.90
9762;DHT22;4920;49.594;11.022;2023-04-01T09:33:38;12.60;99.90
9762;DHT22;4920;49.594;11.022;2023-04-01T09:36:22;12.50;99.90
9762;DHT22;4920;49.594;11.022;2023-04-01T09:38:58;12.40;99.90
9762;DHT22;4920;49.594;11.022;2023-04-01T09:41:31;12.40;99.90
9762;DHT22;4920;49.594;11.022;2023-04-01T09:44:27;12.40;99.90
9762;DHT22;4920;49.594;11.022;2023-04-01T09:47:27;12.50;99.90
9762;DHT22;4920;49.594;11.022;2023-04-01T09:50:23;12.50;99.90
9762;DHT22;4920;49.594;11.022;2023-04-01T09:53:02;12.50;99.90
9762;DHT22;4920;49.594;11.022;2023-04-01T09:59:07;12.50;99.90
9762;DHT22;4920;49.594;11.022;2023-04-01T10:08:33;12.10;99.90
9762;DHT22;4920;49.594;11.022;2023-04-01T10:14:18;12.20;99.90
9762;DHT22;4920;49.594;11.022;2023-04-01T10:20:20;12.20;99.90
9762;DHT22;4920;49.594;11.022;2023-04-01T10:23:15;12.20;99.90
9762;DHT22;4920;49.594;11.022;2023-04-01T10:26:10;12.20;99.90
9762;DHT22;4920;49.594;11.022;2023-04-01T10:28:54;12.30;99.90
9762;DHT22;4920;49.594;11.022;2023-04-01T10:32:24;12.50;99.90
9762;DHT22;4920;49.594;11.022;2023-04-01T10:35:14;12.70;99.90
9762;DHT22;4920;49.594;11.022;2023-04-01T10:41:22;13.00;99.90
9762;DHT22;4920;49.594;11.022;2023-04-01T10:44:42;13.00;99.90
9762;DHT22;4920;49.594;11.022;2023-04-01T10:51:11;12.70;99.90
9762;DHT22;4920;49.594;11.022;2023-04-01T10:53:52;12.60;99.90
9762;DHT22;4920;49.594;11.022;2023-04-01T10:57:02;12.40;99.90
9762;DHT22;4920;49.594;11.022;2023-04-01T11:00:24;12.20;99.90
9762;DHT22;4920;49.594;11.022;2023-04-01T11:04:03;12.10;99.90
9762;DHT22;4920;49.594;11.022;2023-04-01T11:07:27;12.00;99.90
9762;DHT22;4920;49.594;11.022;2023-04-01T11:14:07;12.10;99.90
9762;DHT22;4920;49.594;11.022;2023-04-01T11:17:10;12.00;99.90
9762;DHT22;4920;49.594;11.022;2023-04-01T11:26:00;11.70;99.90
9762;DHT22;4920;49.594;11.022;2023-04-01T11:29:27;11.60;99.90
9762;DHT22;4920;49.594;11.022;2023-04-01T11:32:31;11.50;99.90
9762;DHT22;4920;49.594;11.022;2023-04-01T11:35:23;11.60;99.90
9762;DHT22;4920;49.594;11.022;2023-04-01T11:38:07;11.50;99.90
9762;DHT22;4920;49.594;11.022;2023-04-01T11:40:49;11.60;99.90
9762;DHT22;4920;49.594;11.022;2023-04-01T11:43:42;11.60;99.90
9762;DHT22;4920;49.594;11.022;2023-04-01T11:47:01;11.70;99.90
9762;DHT22;4920;49.594;11.022;2023-04-01T11:49:40;11.90;99.90
9762;DHT22;4920;49.594;11.022;2023-04-01T11:55:21;12.00;99.90
9762;DHT22;4920;49.594;11.022;2023-04-01T11:58:15;11.90;99.90
9762;DHT22;4920;49.594;11.022;2023-04-01T12:01:20;11.90;99.90
9762;DHT22;4920;49.594;11.022;2023-04-01T12:07:19;11.60;99.90
9762;DHT22;4920;49.594;11.022;2023-04-01T12:09:56;11.70;99.90
9762;DHT22;4920;49.594;11.022;2023-04-01T12:12:35;11.70;99.90
9762;DHT22;4920;49.594;11.022;2023-04-01T12:15:23;11.80;99.90
9762;DHT22;4920;49.594;11.022;2023-04-01T12:18:00;11.80;99.90
9762;DHT22;4920;49.594;11.022;2023-04-01T12:20:43;11.90;99.90
9762;DHT22;4920;49.594;11.022;2023-04-01T12:23:36;11.80;99.90
9762;DHT22;4920;49.594;11.022;2023-04-01T12:26:23;11.80;99.90
9762;DHT22;4920;49.594;11.022;2023-04-01T12:29:07;11.80;99.90
9762;DHT22;4920;49.594;11.022;2023-04-01T12:31:47;11.90;99.90
9762;DHT22;4920;49.594;11.022;2023-04-01T12:34:32;11.90;99.90
9762;DHT22;4920;49.594;11.022;2023-04-01T12:37:13;11.80;99.90
9762;DHT22;4920;49.594;11.022;2023-04-01T12:40:21;11.80;99.90
9762;DHT22;4920;49.594;11.022;2023-04-01T12:43:04;11.80;99.90
9762;DHT22;4920;49.594;11.022;2023-04-01T12:45:34;11.80;99.90
9762;DHT22;4920;49.594;11.022;2023-04-01T12:51:18;11.50;99.90
9762;DHT22;4920;49.594;11.022;2023-04-01T12:56:50;11.40;99.90
9762;DHT22;4920;49.594;11.022;2023-04-01T12:59:46;11.40;99.90
9762;DHT22;4920;49.594;11.022;2023-04-01T13:02:31;11.30;99.90
9762;DHT22;4920;49.594;11.022;2023-04-01T13:05:22;11.30;99.90
9762;DHT22;4920;49.594;11.022;2023-04-01T13:08:09;11.20;99.90
9762;DHT22;4920;49.594;11.022;2023-04-01T13:13:59;11.20;99.90
9762;DHT22;4920;49.594;11.022;2023-04-01T13:16:36;11.20;99.90
9762;DHT22;4920;49.594;11.022;2023-04-01T13:19:09;11.30;99.90
9762;DHT22;4920;49.594;11.022;2023-04-01T13:21:50;11.30;99.90
9762;DHT22;4920;49.594;11.022;2023-04-01T13:24:36;11.30;99.90
9762;DHT22;4920;49.594;11.022;2023-04-01T13:27:11;11.20;99.90
9762;DHT22;4920;49.594;11.022;2023-04-01T13:29:49;11.20;99.90
9762;DHT22;4920;49.594;11.022;2023-04-01T13:32:29;11.20;99.90
9762;DHT22;4920;49.594;11.022;2023-04-01T13:35:34;11.20;99.90
9762;DHT22;4920;49.594;11.022;2023-04-01T13:38:17;11.30;99.90
9762;DHT22;4920;49.594;11.022;2023-04-01T13:40:58;11.30;99.90
9762;DHT22;4920;49.594;11.022;2023-04-01T13:43:34;11.30;99.90
9762;DHT22;4920;49.594;11.022;2023-04-01T13:46:27;11.40;99.90
9762;DHT22;4920;49.594;11.022;2023-04-01T13:52:08;11.40;99.90
9762;DHT22;4920;49.594;11.022;2023-04-01T13:55:16;11.40;99.90
9762;DHT22;4920;49.594;11.022;2023-04-01T14:00:56;11.40;99.90
9762;DHT22;4920;49.594;11.022;2023-04-01T14:04:00;11.30;99.90
9762;DHT22;4920;49.594;11.022;2023-04-01T14:06:38;11.30;99.90
9762;DHT22;4920;49.594;11.022;2023-04-01T14:12:04;11.30;99.90
9762;DHT22;4920;49.594;11.022;2023-04-01T14:14:47;11.30;99.90
9762;DHT22;4920;49.594;11.022;2023-04-01T14:17:39;11.40;99.90
9762;DHT22;4920;49.594;11.022;2023-04-01T14:20:26;11.50;99.90
9762;DHT22;4920;49.594;11.022;2023-04-01T14:23:13;11.50;99.90
9762;DHT22;4920;49.594;11.022;2023-04-01T14:26:00;11.60;99.90
9762;DHT22;4920;49.594;11.022;2023-04-01T14:28:36;11.60;99.90
9762;DHT22;4920;49.594;11.022;2023-04-01T14:31:23;11.60;99.90
9762;DHT22;4920;49.594;11.022;2023-04-01T14:34:05;11.60;99.90
9762;DHT22;4920;49.594;11.022;2023-04-01T14:36:53;11.60;99.90
9762;DHT22;4920;49.594;11.022;2023-04-01T14:39:43;11.70;99.90
9762;DHT22;4920;49.594;11.022;2023-04-01T14:42:40;11.70;99.90
9762;DHT22;4920;49.594;11.022;2023-04-01T14:45:34;11.70;99.90
9762;DHT22;4920;49.594;11.022;2023-04-01T14:48:17;11.50;99.90
9762;DHT22;4920;49.594;11.022;2023-04-01T14:50:52;11.40;99.90
9762;DHT22;4920;49.594;11.022;2023-04-01T14:53:28;11.30;99.90
9762;DHT22;4920;49.594;11.022;2023-04-01T14:55:59;11.20;99.90
9762;DHT22;4920;49.594;11.022;2023-04-01T14:58:42;11.20;99.90
9762;DHT22;4920;49.594;11.022;2023-04-01T15:01:23;11.20;99.90
9762;DHT22;4920;49.594;11.022;2023-04-01T15:04:01;11.10;99.90
9762;DHT22;4920;49.594;11.022;2023-04-01T15:06:50;11.10;99.90
9762;DHT22;4920;49.594;11.022;2023-04-01T15:09:31;11.10;99.90
9762;DHT22;4920;49.594;11.022;2023-04-01T15:12:16;11.00;99.90
9762;DHT22;4920;49.594;11.022;2023-04-01T15:15:14;11.00;99.90
9762;DHT22;4920;49.594;11.022;2023-04-01T15:17:56;11.00;99.90
9762;DHT22;4920;49.594;11.022;2023-04-01T15:23:29;11.00;99.90
9762;DHT22;4920;49.594;11.022;2023-04-01T15:26:13;11.00;99.90
9762;DHT22;4920;49.594;11.022;2023-04-01T15:28:57;11.00;99.90
9762;DHT22;4920;49.594;11.022;2023-04-01T15:31:33;10.90;99.90
9762;DHT22;4920;49.594;11.022;2023-04-01T15:34:18;11.00;99.90
9762;DHT22;4920;49.594;11.022;2023-04-01T15:36:53;11.00;99.90
9762;DHT22;4920;49.594;11.022;2023-04-01T15:39:28;11.00;99.90
9762;DHT22;4920;49.594;11.022;2023-04-01T15:42:29;11.00;99.90
9762;DHT22;4920;49.594;11.022;2023-04-01T15:45:15;11.00;99.90
9762;DHT22;4920;49.594;11.022;2023-04-01T15:47:56;11.00;99.90
9762;DHT22;4920;49.594;11.022;2023-04-01T15:53:37;11.00;99.90
9762;DHT22;4920;49.594;11.022;2023-04-01T15:56:19;11.10;99.90
9762;DHT22;4920;49.594;11.022;2023-04-01T15:59:04;11.10;99.90
9762;DHT22;4920;49.594;11.022;2023-04-01T16:01:46;11.10;99.90
9762;DHT22;4920;49.594;11.022;2023-04-01T16:04:43;11.10;99.90
9762;DHT22;4920;49.594;11.022;2023-04-01T16:07:49;11.00;99.90
9762;DHT22;4920;49.594;11.022;2023-04-01T16:10:35;11.00;99.90
9762;DHT22;4920;49.594;11.022;2023-04-01T16:13:20;10.90;99.90
9762;DHT22;4920;49.594;11.022;2023-04-01T16:16:00;10.80;99.90
9762;DHT22;4920;49.594;11.022;2023-04-01T16:18:50;10.70;99.90
9762;DHT22;4920;49.594;11.022;2023-04-01T16:21:33;10.60;99.90
9762;DHT22;4920;49.594;11.022;2023-04-01T16:24:13;10.60;99.90
9762;DHT22;4920;49.594;11.022;2023-04-01T16:26:49;10.50;99.90
9762;DHT22;4920;49.594;11.022;2023-04-01T16:29:26;10.50;99.90
9762;DHT22;4920;49.594;11.022;2023-04-01T16:32:05;10.40;99.90
9762;DHT22;4920;49.594;11.022;2023-04-01T16:34:42;10.40;99.90
9762;DHT22;4920;49.594;11.022;2023-04-01T16:37:15;10.30;99.90
9762;DHT22;4920;49.594;11.022;2023-04-01T16:39:49;10.30;99.90
9762;DHT22;4920;49.594;11.022;2023-04-01T16:42:28;10.30;99.90
9762;DHT22;4920;49.594;11.022;2023-04-01T16:45:02;10.20;99.90
9762;DHT22;4920;49.594;11.022;2023-04-01T16:47:35;10.20;99.90
9762;DHT22;4920;49.594;11.022;2023-04-01T16:50:15;10.10;99.90
9762;DHT22;4920;49.594;11.022;2023-04-01T16:53:07;10.10;99.90
9762;DHT22;4920;49.594;11.022;2023-04-01T16:55:47;10.10;99.90
9762;DHT22;4920;49.594;11.022;2023-04-01T16:58:22;10.00;99.90
9762;DHT22;4920;49.594;11.022;2023-04-01T17:00:55;10.00;99.90
9762;DHT22;4920;49.594;11.022;2023-04-01T17:03:30;10.00;99.90
9762;DHT22;4920;49.594;11.022;2023-04-01T17:06:14;10.00;99.90
9762;DHT22;4920;49.594;11.022;2023-04-01T17:08:57;10.00;99.90
9762;DHT22;4920;49.594;11.022;2023-04-01T17:11:35;9.90;99.90
9762;DHT22;4920;49.594;11.022;2023-04-01T17:14:14;9.90;99.90
9762;DHT22;4920;49.594;11.022;2023-04-01T17:17:28;9.90;99.90
9762;DHT22;4920;49.594;11.022;2023-04-01T17:20:18;9.80;99.90
9762;DHT22;4920;49.594;11.022;2023-04-01T17:22:55;9.80;99.90
9762;DHT22;4920;49.594;11.022;2023-04-01T17:25:34;9.80;99.90
9762;DHT22;4920;49.594;11.022;2023-04-01T17:28:18;9.80;99.90
9762;DHT22;4920;49.594;11.022;2023-04-01T17:30:54;9.80;99.90
9762;DHT22;4920;49.594;11.022;2023-04-01T17:36:35;9.70;99.90
9762;DHT22;4920;49.594;11.022;2023-04-01T17:39:26;9.70;99.90
9762;DHT22;4920;49.594;11.022;2023-04-01T17:42:06;9.60;99.90
9762;DHT22;4920;49.594;11.022;2023-04-01T17:44:44;9.70;99.90
9762;DHT22;4920;49.594;11.022;2023-04-01T17:47:30;9.60;99.90
9762;DHT22;4920;49.594;11.022;2023-04-01T17:50:09;9.50;99.90
9762;DHT22;4920;49.594;11.022;2023-04-01T17:52:46;9.50;99.90
9762;DHT22;4920;49.594;11.022;2023-04-01T17:55:43;9.50;99.90
9762;DHT22;4920;49.594;11.022;2023-04-01T17:58:19;9.50;99.90
9762;DHT22;4920;49.594;11.022;2023-04-01T18:01:00;9.50;99.90
9762;DHT22;4920;49.594;11.022;2023-04-01T18:03:55;9.50;99.90
9762;DHT22;4920;49.594;11.022;2023-04-01T18:06:34;9.50;99.90
9762;DHT22;4920;49.594;11.022;2023-04-01T18:09:16;9.50;99.90
9762;DHT22;4920;49.594;11.022;2023-04-01T18:11:59;9.50;99.90
9762;DHT22;4920;49.594;11.022;2023-04-01T18:17:41;9.40;99.90
9762;DHT22;4920;49.594;11.022;2023-04-01T18:20:34;9.40;99.90
9762;DHT22;4920;49.594;11.022;2023-04-01T18:23:14;9.40;99.90
9762;DHT22;4920;49.594;11.022;2023-04-01T18:25:53;9.40;99.90
9762;DHT22;4920;49.594;11.022;2023-04-01T18:28:30;9.40;99.90
9762;DHT22;4920;49.594;11.022;2023-04-01T18:31:07;9.40;99.90
9762;DHT22;4920;49.594;11.022;2023-04-01T18:33:44;9.40;99.90
9762;DHT22;4920;49.594;11.022;2023-04-01T18:36:21;9.40;99.90
9762;DHT22;4920;49.594;11.022;2023-04-01T18:38:54;9.30;99.90
9762;DHT22;4920;49.594;11.022;2023-04-01T18:41:31;9.30;99.90
9762;DHT22;4920;49.594;11.022;2023-04-01T18:44:20;9.30;99.90